Time;durP1;ratioP1;P1;durP2;ratioP2;P2;SDS_P1;SDS_P2;PMS_P1;PMS_P2;Temp;Humidity;BMP_temperature;BMP_pressure;BME280_temperature;BME280_humidity;BME280_pressure;Samples;Min_cycle;Max_cycle;Signal;HPM_P1;HPM_P2
2024/01/15 00:01:26;;;;;;;19.10;11.20;;;;;;;-0.61;93.21;96685.70;435161;1251;108466;-39
2024/01/15 00:11:33;;;;;;;19.50;10.80;;;;;;;-0.65;93.24;96669.15;435206;1250;98018;-39
2024/01/15 00:21:40;;;;;;;26.60;13.30;;;;;;;-0.67;93.54;96636.02;435227;1256;108132;-40
2024/01/15 00:41:54;;;;;;;24.10;11.10;;;;;;;-0.66;93.33;96626.67;435266;1250;99215;-39
2024/01/15 00:52:01;;;;;;;23.10;11.40;;;;;;;-0.61;93.08;96612.23;434852;1255;604100;-40
2024/01/15 01:02:08;;;;;;;22.00;12.10;;;;;;;-0.60;93.17;96599.73;435235;1250;99272;-40
2024/01/15 01:22:21;;;;;;;16.10;10.40;;;;;;;-0.70;93.27;96584.10;435408;1255;108559;-39
2024/01/15 01:32:28;;;;;;;16.40;8.70;;;;;;;-0.66;93.28;96569.90;435370;1250;98014;-38
2024/01/15 01:42:35;;;;;;;20.20;11.50;;;;;;;-0.67;93.25;96556.29;435345;1254;111221;-39
2024/01/15 01:52:41;;;;;;;18.80;11.40;;;;;;;-0.65;93.25;96537.19;435216;1250;108510;-40
2024/01/15 02:02:48;;;;;;;21.50;10.60;;;;;;;-0.71;93.48;96528.64;435393;1251;98823;-39
2024/01/15 02:12:54;;;;;;;16.80;9.70;;;;;;;-0.75;93.53;96523.61;435376;1256;111460;-39
2024/01/15 02:43:21;;;;;;;22.10;11.20;;;;;;;-0.78;93.61;96465.33;435379;1256;108277;-38
2024/01/15 02:53:26;;;;;;;21.70;9.60;;;;;;;-0.86;93.57;96450.94;436052;1254;99106;-38
2024/01/15 03:03:34;;;;;;;12.70;6.80;;;;;;;-0.87;93.57;96430.70;435366;1256;111631;-38
2024/01/15 03:13:41;;;;;;;18.30;7.90;;;;;;;-0.78;93.39;96414.83;435481;1250;108232;-38
2024/01/15 03:23:48;;;;;;;13.50;8.00;;;;;;;-0.71;93.32;96390.10;435484;1251;97982;-40
2024/01/15 03:33:56;;;;;;;19.10;8.80;;;;;;;-0.70;93.25;96389.61;435331;1256;108367;-39
2024/01/15 03:44:04;;;;;;;15.90;8.70;;;;;;;-0.75;93.09;96382.86;435398;1256;99283;-40
2024/01/15 03:54:11;;;;;;;7.40;5.50;;;;;;;-0.72;92.70;96380.36;435273;1255;112332;-41
2024/01/15 04:04:19;;;;;;;8.70;6.50;;;;;;;-0.62;92.74;96375.05;435257;1256;108302;-38
2024/01/15 04:14:26;;;;;;;15.20;8.60;;;;;;;-0.61;92.68;96368.02;435409;1256;99372;-40
2024/01/15 04:24:32;;;;;;;12.40;7.40;;;;;;;-0.67;92.61;96363.55;435463;1256;111943;-40
2024/01/15 04:34:39;;;;;;;17.90;10.90;;;;;;;-0.73;92.65;96365.35;435444;1256;107151;-40
2024/01/15 04:44:45;;;;;;;9.90;5.90;;;;;;;-0.73;92.57;96351.51;435327;1253;99243;-39
2024/01/15 04:54:52;;;;;;;11.00;6.40;;;;;;;-0.69;92.26;96356.08;435265;1250;112042;-41
2024/01/15 05:04:59;;;;;;;12.20;6.00;;;;;;;-0.70;92.43;96352.96;435090;1256;107710;-40
2024/01/15 05:15:07;;;;;;;16.50;8.90;;;;;;;-0.78;92.38;96348.63;435429;1255;97989;-38
2024/01/15 05:25:14;;;;;;;13.60;7.90;;;;;;;-0.85;92.59;96339.13;435348;1251;108203;-39
2024/01/15 05:35:20;;;;;;;7.50;5.10;;;;;;;-0.83;92.41;96330.67;435220;1256;99218;-39
2024/01/15 05:45:28;;;;;;;8.60;5.90;;;;;;;-0.79;92.50;96331.77;435385;1250;111968;-38
2024/01/15 05:55:36;;;;;;;14.30;8.90;;;;;;;-0.75;92.62;96337.86;435338;1251;108626;-40
2024/01/15 06:05:43;;;;;;;14.40;6.40;;;;;;;-0.75;92.57;96327.84;435336;1264;98048;-39
2024/01/15 06:15:51;;;;;;;8.00;5.40;;;;;;;-0.71;92.34;96319.11;435763;1257;109214;-38
2024/01/15 06:25:58;;;;;;;8.90;6.30;;;;;;;-0.74;92.08;96317.09;435436;1251;98579;-40
2024/01/15 06:36:06;;;;;;;12.20;6.90;;;;;;;-0.72;92.25;96319.63;435293;1257;112246;-39
2024/01/15 06:46:20;;;;;;;14.10;7.70;;;;;;;-0.69;92.12;96326.17;435288;1251;107891;-39
2024/01/15 06:56:27;;;;;;;12.10;6.10;;;;;;;-0.57;91.86;96335.49;435377;1256;97978;-40
2024/01/15 07:06:34;;;;;;;24.50;12.60;;;;;;;-0.45;91.68;96346.48;435216;1251;107276;-39
2024/01/15 07:16:41;;;;;;;18.00;9.60;;;;;;;-0.41;91.56;96360.71;435315;1251;99195;-39
2024/01/15 07:26:53;;;;;;;13.00;7.10;;;;;;;-0.54;91.18;96369.02;435474;1261;110521;-39
2024/01/15 07:37:00;;;;;;;15.70;6.90;;;;;;;-0.54;91.39;96375.80;435338;1251;107790;-40
2024/01/15 07:47:09;;;;;;;24.90;13.20;;;;;;;-0.40;91.42;96382.50;435316;1252;99320;-40
2024/01/15 07:57:16;;;;;;;30.50;14.70;;;;;;;-0.38;91.51;96397.06;435254;1256;106814;-39
2024/01/15 08:07:23;;;;;;;20.30;10.80;;;;;;;-0.42;91.47;96416.56;435225;1255;98824;-40
2024/01/15 08:17:32;;;;;;;18.10;8.90;;;;;;;-0.35;91.26;96421.44;435354;1261;110403;-40
2024/01/15 08:27:39;;;;;;;28.30;12.90;;;;;;;-0.22;91.26;96418.60;435352;1251;107828;-38
2024/01/15 08:37:45;;;;;;;24.80;12.30;;;;;;;-0.05;91.29;96418.48;435349;1251;98823;-39
2024/01/15 08:47:52;;;;;;;14.30;8.60;;;;;;;-0.04;90.70;96413.05;435266;1255;108326;-40
2024/01/15 08:57:59;;;;;;;24.80;10.40;;;;;;;0.16;90.36;96417.88;435172;1251;99289;-39
2024/01/15 09:08:07;;;;;;;22.50;11.50;;;;;;;0.31;90.24;96409.57;435307;1251;112379;-40
2024/01/15 09:38:27;;;;;;;19.00;9.50;;;;;;;0.64;89.73;96406.89;435223;1264;111966;-39
2024/01/15 09:58:42;;;;;;;23.40;12.20;;;;;;;0.49;88.63;96380.14;435333;1254;98731;-40
2024/01/15 10:08:47;;;;;;;13.70;8.20;;;;;;;0.55;88.19;96385.34;435345;1251;111840;-40
2024/01/15 10:18:54;;;;;;;19.30;9.20;;;;;;;0.55;87.44;96383.00;435479;1251;108171;-40
2024/01/15 10:39:09;;;;;;;14.90;9.80;;;;;;;0.38;85.16;96381.20;435268;1254;110832;-39
2024/01/15 10:49:16;;;;;;;22.10;9.80;;;;;;;0.43;85.12;96376.55;435241;1264;107378;-39
2024/01/15 10:59:24;;;;;;;28.50;11.00;;;;;;;0.27;84.86;96388.82;435410;1254;99263;-40
2024/01/15 11:09:31;;;;;;;15.40;8.50;;;;;;;0.09;84.13;96381.58;435340;1254;110172;-40
2024/01/15 11:29:44;;;;;;;21.60;10.10;;;;;;;0.12;83.99;96366.46;435376;1254;99237;-39
2024/01/15 11:39:52;;;;;;;21.50;10.70;;;;;;;0.09;84.13;96368.73;435291;1254;111942;-41
2024/01/15 11:50:05;;;;;;;10.40;6.20;;;;;;;0.18;83.54;96359.55;435311;1254;109490;-39
2024/01/15 12:00:15;;;;;;;16.50;8.30;;;;;;;0.38;82.67;96359.52;435280;1250;99265;-40
2024/01/15 12:10:23;;;;;;;18.60;9.20;;;;;;;0.33;81.76;96371.04;435216;1254;106012;-40
2024/01/15 12:20:33;;;;;;;17.10;8.60;;;;;;;0.37;81.80;96358.19;435431;1250;99244;-39
2024/01/15 12:30:41;;;;;;;12.60;5.60;;;;;;;0.46;81.17;96352.03;435333;1256;99221;-39
2024/01/15 12:40:49;;;;;;;16.70;8.50;;;;;;;0.58;80.95;96348.23;435308;1254;107391;-41
2024/01/15 12:50:57;;;;;;;30.60;12.70;;;;;;;0.61;80.58;96343.98;434939;1254;510934;-39
2024/01/15 13:01:05;;;;;;;26.50;12.00;;;;;;;0.67;79.96;96341.67;435368;1251;110412;-39
2024/01/15 13:11:12;;;;;;;10.60;5.40;;;;;;;0.77;78.99;96349.42;435277;1250;107793;-39
2024/01/15 13:21:19;;;;;;;14.90;7.70;;;;;;;0.78;79.21;96350.44;435266;1251;99222;-39
2024/01/15 13:31:26;;;;;;;19.10;8.20;;;;;;;0.65;79.64;96361.08;435419;1255;112910;-39
2024/01/15 13:41:34;;;;;;;20.00;8.80;;;;;;;0.49;79.34;96365.83;435377;1250;107674;-41
2024/01/15 13:51:40;;;;;;;15.70;7.90;;;;;;;0.41;79.44;96357.88;435296;1254;99511;-40
2024/01/15 14:01:47;;;;;;;14.20;6.30;;;;;;;0.37;78.69;96359.50;435235;1250;108621;-40
2024/01/15 14:32:04;;;;;;;14.60;7.50;;;;;;;-0.00;77.99;96375.48;436148;1250;107048;-39
2024/01/15 14:42:11;;;;;;;17.30;8.50;;;;;;;-0.02;78.02;96369.09;436008;1254;99221;-39
2024/01/15 15:12:33;;;;;;;;;;;;;;;-0.22;77.65;96381.27;435533;1252;112235;-40
2024/01/15 15:22:40;;;;;;;15.70;9.40;;;;;;;-0.23;77.69;96379.86;435283;1250;107579;-40
2024/01/15 15:32:48;;;;;;;26.90;13.50;;;;;;;-0.25;77.95;96385.73;435343;1253;99162;-39
2024/01/15 15:42:54;;;;;;;29.70;12.60;;;;;;;-0.35;78.06;96394.23;435680;1250;110705;-40
2024/01/15 16:03:08;;;;;;;25.10;10.50;;;;;;;-0.46;78.88;96403.17;435397;1250;99237;-40
2024/01/15 16:13:16;;;;;;;41.90;13.30;;;;;;;-0.47;79.17;96411.85;437811;1254;111045;-39
2024/01/15 16:23:23;;;;;;;35.20;13.20;;;;;;;-0.55;79.84;96413.71;436910;1254;108662;-39
2024/01/15 16:33:49;;;;;;;27.50;12.00;;;;;;;-0.66;80.39;96418.65;435351;1254;117801;-40
2024/01/15 16:44:04;;;;;;;17.00;10.00;;;;;;;-0.66;80.33;96426.23;435337;1250;108220;-40
2024/01/15 16:54:11;;;;;;;23.50;10.20;;;;;;;-0.56;80.65;96422.15;435293;1250;99230;-39
2024/01/15 17:04:18;;;;;;;21.10;9.90;;;;;;;-0.56;80.75;96426.15;435328;1254;111776;-40
2024/01/15 17:14:25;;;;;;;26.60;11.10;;;;;;;-0.59;80.42;96432.72;435410;1254;108438;-38
2024/01/15 17:24:32;;;;;;;21.40;9.50;;;;;;;-0.57;80.32;96441.53;435337;1250;99243;-40
2024/01/15 17:34:40;;;;;;;22.50;10.40;;;;;;;-0.48;80.04;96451.43;435237;1250;112839;-40
2024/01/15 17:44:47;;;;;;;27.90;11.70;;;;;;;-0.48;80.32;96459.63;435195;1254;109220;-41
2024/01/15 17:54:53;;;;;;;27.40;11.50;;;;;;;-0.59;80.37;96459.75;435281;1254;98011;-40
2024/01/15 18:04:58;;;;;;;14.80;7.00;;;;;;;-0.58;80.39;96461.45;435286;1253;98823;-40
2024/01/15 18:15:04;;;;;;;21.50;9.70;;;;;;;-0.55;80.47;96463.76;435049;1250;107776;-39
2024/01/15 18:25:09;;;;;;;27.20;13.20;;;;;;;-0.68;80.88;96472.91;435413;1250;98843;-40
2024/01/15 18:35:17;;;;;;;23.70;10.10;;;;;;;-0.81;81.36;96492.57;435219;1250;110113;-38
2024/01/15 18:45:24;;;;;;;25.60;11.70;;;;;;;-0.86;82.11;96493.16;435326;1254;108702;-38
2024/01/15 18:55:32;;;;;;;39.90;16.30;;;;;;;-0.95;82.53;96492.86;435119;1253;99100;-39
2024/01/15 19:05:40;;;;;;;32.40;14.40;;;;;;;-1.06;83.33;96498.30;435147;1250;111960;-40
2024/01/15 19:15:46;;;;;;;22.40;11.90;;;;;;;-1.05;83.76;96505.16;435254;1254;107676;-39
2024/01/15 19:25:53;;;;;;;22.70;10.40;;;;;;;-1.05;84.31;96510.88;435274;1256;99240;-39
2024/01/15 19:35:59;;;;;;;31.70;12.80;;;;;;;-1.02;84.47;96523.85;435369;1254;111295;-39
2024/01/15 19:46:06;;;;;;;27.50;11.70;;;;;;;-0.98;84.59;96540.27;435485;1254;107309;-39
2024/01/15 20:06:20;;;;;;;11.50;5.70;;;;;;;-0.77;84.56;96554.02;435361;1250;111345;-39
2024/01/15 20:16:26;;;;;;;28.30;12.00;;;;;;;-0.68;84.66;96572.55;435254;1250;107321;-37
2024/01/15 20:26:33;;;;;;;12.40;6.00;;;;;;;-0.72;84.72;96571.55;435371;1256;98798;-39
2024/01/15 20:36:41;;;;;;;13.60;8.70;;;;;;;-0.70;84.54;96572.73;436098;1256;107440;-39
2024/01/15 20:56:55;;;;;;;21.60;12.60;;;;;;;-0.73;84.70;96585.14;436618;1256;110535;-40
2024/01/15 21:07:03;;;;;;;21.30;12.10;;;;;;;-0.77;84.76;96587.71;435510;1250;108331;-40
2024/01/15 21:17:10;;;;;;;17.80;9.20;;;;;;;-0.68;84.94;96607.36;435220;1256;99294;-39
2024/01/15 21:27:18;;;;;;;23.20;12.70;;;;;;;-0.65;85.00;96608.98;435724;1256;110745;-38
2024/01/15 21:37:27;;;;;;;23.70;12.70;;;;;;;-0.71;85.09;96627.81;435292;1250;108345;-39
2024/01/15 21:47:34;;;;;;;16.00;10.20;;;;;;;-0.70;85.09;96638.27;435479;1250;98134;-38
2024/01/15 21:57:41;;;;;;;12.00;7.90;;;;;;;-0.65;85.03;96651.39;435308;1256;108135;-38
2024/01/15 22:07:48;;;;;;;22.10;10.50;;;;;;;-0.64;85.18;96656.50;435290;1250;98004;-39
2024/01/15 22:38:06;;;;;;;9.50;5.80;;;;;;;-0.70;85.36;96692.38;435660;1256;99260;-38
2024/01/15 22:48:13;;;;;;;23.00;10.40;;;;;;;-0.70;85.39;96707.06;435408;1256;112114;-39
2024/01/15 22:58:21;;;;;;;23.40;10.40;;;;;;;-0.81;85.23;96705.18;435612;1256;109713;-39
2024/01/15 23:08:28;;;;;;;24.90;11.30;;;;;;;-0.93;85.41;96716.04;435368;1250;98381;-37
2024/01/15 23:18:33;;;;;;;15.20;8.00;;;;;;;-0.88;85.58;96722.93;435366;1250;111268;-39
2024/01/15 23:28:40;;;;;;;21.50;9.20;;;;;;;-0.84;85.70;96735.41;435492;1250;106830;-37
2024/01/15 23:38:46;;;;;;;13.30;6.20;;;;;;;-0.89;85.98;96741.02;435432;1251;99263;-38
2024/01/15 23:48:52;;;;;;;10.70;5.90;;;;;;;-0.95;86.39;96748.73;435264;1256;111042;-39
2024/01/15 23:58:59;;;;;;;9.70;6.40;;;;;;;-0.93;86.41;96758.48;435329;1251;108340;-39
